createdAt,value
2018-10-01T00:00:24.877Z,960.31
2018-10-01T00:01:24.874Z,960.30
2018-10-01T00:02:24.866Z,960.24
2018-10-01T00:03:24.960Z,960.25
2018-10-01T00:04:24.851Z,960.21
2018-10-01T00:05:24.835Z,960.21
2018-10-01T00:06:24.811Z,960.22
2018-10-01T00:07:24.793Z,960.22
2018-10-01T00:08:24.787Z,960.24
2018-10-01T00:09:24.807Z,960.17
2018-10-01T00:10:24.762Z,960.20
2018-10-01T00:11:24.753Z,960.17
2018-10-01T00:12:24.739Z,960.19
2018-10-01T00:13:24.731Z,960.19
2018-10-01T00:14:24.752Z,960.20
2018-10-01T00:15:24.711Z,960.23
2018-10-01T00:16:24.694Z,960.19
2018-10-01T00:17:24.682Z,960.19
2018-10-01T00:18:24.680Z,960.20
2018-10-01T00:19:24.697Z,960.23
2018-10-01T00:20:24.649Z,960.21
2018-10-01T00:21:24.647Z,960.25
2018-10-01T00:22:24.626Z,960.23
2018-10-01T00:23:24.624Z,960.24
2018-10-01T00:24:24.610Z,960.24
2018-10-01T00:25:24.636Z,960.22
2018-10-01T00:26:24.583Z,960.24
2018-10-01T00:27:24.605Z,960.21
2018-10-01T00:28:24.558Z,960.23
2018-10-01T00:29:24.558Z,960.15
2018-10-01T00:30:24.568Z,960.17
2018-10-01T00:31:24.525Z,960.20
2018-10-01T00:32:24.517Z,960.17
2018-10-01T00:33:24.510Z,960.15
2018-10-01T00:34:24.491Z,960.17
2018-10-01T00:35:24.508Z,960.14
2018-10-01T00:36:24.478Z,960.17
2018-10-01T00:37:24.458Z,960.09
2018-10-01T00:38:24.497Z,960.11
2018-10-01T00:39:24.439Z,960.10
2018-10-01T00:40:24.459Z,960.06
2018-10-01T00:41:24.413Z,960.05
2018-10-01T00:42:24.419Z,960.03
2018-10-01T00:43:24.398Z,960.01
2018-10-01T00:44:24.393Z,959.99
2018-10-01T00:45:24.397Z,959.99
2018-10-01T00:46:24.357Z,959.98
2018-10-01T00:47:24.355Z,959.97
2018-10-01T00:48:24.340Z,959.99
2018-10-01T00:49:24.330Z,959.97
2018-10-01T00:50:24.362Z,959.96
2018-10-01T00:51:24.351Z,960.01
2018-10-01T00:52:24.296Z,959.99
2018-10-01T00:53:24.289Z,960.04
2018-10-01T00:54:24.264Z,960.06
2018-10-01T00:55:24.260Z,960.14
2018-10-01T00:56:24.267Z,960.18
2018-10-01T00:57:24.242Z,960.25
2018-10-01T00:58:24.224Z,960.28
2018-10-01T00:59:24.217Z,960.30
2018-10-01T01:00:24.205Z,960.35
2018-10-01T01:01:24.218Z,960.39
2018-10-01T01:02:24.184Z,960.43
2018-10-01T01:03:24.173Z,960.47
2018-10-01T01:04:24.200Z,960.45
2018-10-01T01:05:24.155Z,960.42
2018-10-01T01:06:24.139Z,960.39
2018-10-01T01:07:24.150Z,960.42
2018-10-01T01:08:24.120Z,960.41
2018-10-01T01:09:24.118Z,960.38
2018-10-01T01:10:24.097Z,960.30
2018-10-01T01:11:24.081Z,960.32
2018-10-01T01:12:24.083Z,960.36
2018-10-01T01:13:24.059Z,960.34
2018-10-01T01:14:24.038Z,960.31
2018-10-01T01:15:24.027Z,960.29
2018-10-01T01:16:24.028Z,960.30
2018-10-01T01:17:24.060Z,960.26
2018-10-01T01:18:23.993Z,960.29
2018-10-01T01:19:23.989Z,960.26
2018-10-01T01:20:23.971Z,960.30
2018-10-01T01:21:23.960Z,960.27
2018-10-01T01:22:23.971Z,960.33
2018-10-01T01:23:23.970Z,960.31
2018-10-01T01:24:23.952Z,960.32
2018-10-01T01:25:23.919Z,960.32
2018-10-01T01:26:23.912Z,960.41
2018-10-01T01:27:24.049Z,960.39
2018-10-01T01:28:23.887Z,960.43
2018-10-01T01:29:23.885Z,960.37
2018-10-01T01:30:23.860Z,960.42
2018-10-01T01:31:23.853Z,960.42
2018-10-01T01:32:23.874Z,960.42
2018-10-01T01:33:23.838Z,960.42
2018-10-01T01:34:23.817Z,960.46
2018-10-01T01:35:23.813Z,960.45
2018-10-01T01:36:23.804Z,960.37
2018-10-01T01:37:23.813Z,960.44
2018-10-01T01:38:23.790Z,960.38
2018-10-01T01:39:23.761Z,960.44
2018-10-01T01:40:23.747Z,960.39
2018-10-01T01:41:23.746Z,960.40
2018-10-01T01:42:23.765Z,960.43
2018-10-01T01:43:23.717Z,960.42
2018-10-01T01:44:23.725Z,960.40
2018-10-01T01:45:23.695Z,960.41
2018-10-01T01:46:23.681Z,960.38
2018-10-01T01:47:23.715Z,960.39
2018-10-01T01:48:23.660Z,960.37
2018-10-01T01:49:23.669Z,960.41
2018-10-01T01:50:23.725Z,960.34
2018-10-01T01:51:23.628Z,960.31
2018-10-01T01:52:23.647Z,960.30
2018-10-01T01:53:23.606Z,960.27
2018-10-01T01:54:23.598Z,960.27
2018-10-01T01:55:23.577Z,960.31
2018-10-01T01:56:23.585Z,960.30
2018-10-01T01:57:23.568Z,960.23
2018-10-01T01:58:23.576Z,960.22
2018-10-01T01:59:23.538Z,960.23
2018-10-01T02:00:23.525Z,960.29
2018-10-01T02:01:23.511Z,960.21
2018-10-01T02:02:23.502Z,960.23
2018-10-01T02:03:23.519Z,960.17
2018-10-01T02:04:23.479Z,960.21
2018-10-01T02:05:23.467Z,960.09
2018-10-01T02:06:23.461Z,960.13
2018-10-01T02:07:23.471Z,960.07
2018-10-01T02:08:23.460Z,960.11
2018-10-01T02:09:23.424Z,960.08
2018-10-01T02:10:23.413Z,960.13
2018-10-01T02:11:23.398Z,960.06
2018-10-01T02:12:23.390Z,960.05
2018-10-01T02:13:23.411Z,960.03
2018-10-01T02:14:23.365Z,960.08
2018-10-01T02:15:23.356Z,960.01
2018-10-01T02:16:23.345Z,960.05
2018-10-01T02:17:23.333Z,960.10
2018-10-01T02:18:23.354Z,960.09
2018-10-01T02:19:23.333Z,960.14
2018-10-01T02:20:23.297Z,960.08
2018-10-01T02:21:23.289Z,960.15
2018-10-01T02:22:23.275Z,960.10
2018-10-01T02:23:23.263Z,960.04
2018-10-01T02:24:23.274Z,960.03
2018-10-01T02:25:23.241Z,959.99
2018-10-01T02:26:23.226Z,959.94
2018-10-01T02:27:23.227Z,959.98
2018-10-01T02:28:23.205Z,960.04
2018-10-01T02:29:23.238Z,959.95
2018-10-01T02:30:23.196Z,959.97
2018-10-01T02:31:23.172Z,959.95
2018-10-01T02:32:23.163Z,960.04
2018-10-01T02:33:23.159Z,959.96
2018-10-01T02:34:23.169Z,959.95
2018-10-01T02:35:23.162Z,959.97
2018-10-01T02:36:23.120Z,959.99
2018-10-01T02:37:23.106Z,959.94
2018-10-01T02:38:23.093Z,959.92
2018-10-01T02:39:23.083Z,959.98
2018-10-01T02:40:23.099Z,959.94
2018-10-01T02:41:23.060Z,959.96
2018-10-01T02:42:23.053Z,959.88
2018-10-01T02:43:23.039Z,959.88
2018-10-01T02:44:23.033Z,959.88
2018-10-01T02:45:23.036Z,959.90
2018-10-01T02:46:23.004Z,959.94
2018-10-01T02:47:22.995Z,959.92
2018-10-01T02:48:22.985Z,959.93
2018-10-01T02:49:22.970Z,959.89
2018-10-01T02:50:22.993Z,959.92
2018-10-01T02:51:22.964Z,959.87
2018-10-01T02:52:22.933Z,959.88
2018-10-01T02:53:22.927Z,959.90
2018-10-01T02:54:22.913Z,959.89
2018-10-01T02:55:22.901Z,959.90
2018-10-01T02:56:22.920Z,959.93
2018-10-01T02:57:22.879Z,959.88
2018-10-01T02:58:22.864Z,959.86
2018-10-01T02:59:22.861Z,959.87
2018-10-01T03:00:22.859Z,959.84
2018-10-01T03:01:22.857Z,959.86
2018-10-01T03:02:22.824Z,959.83
2018-10-01T03:03:22.809Z,959.84
2018-10-01T03:04:22.801Z,959.82
2018-10-01T03:05:22.787Z,959.83
2018-10-01T03:06:22.823Z,959.80
2018-10-01T03:07:22.764Z,959.80
2018-10-01T03:08:22.757Z,959.77
2018-10-01T03:09:22.750Z,959.77
2018-10-01T03:10:22.732Z,959.78
2018-10-01T03:11:22.722Z,959.78
2018-10-01T03:12:22.867Z,959.77
2018-10-01T03:13:22.705Z,959.69
2018-10-01T03:14:22.686Z,959.70
2018-10-01T03:15:22.685Z,959.69
2018-10-01T03:16:22.667Z,959.73
2018-10-01T03:17:22.695Z,959.70
2018-10-01T03:18:22.641Z,959.74
2018-10-01T03:19:22.627Z,959.68
2018-10-01T03:20:22.624Z,959.67
2018-10-01T03:21:22.721Z,959.68
2018-10-01T03:22:22.640Z,959.73
2018-10-01T03:23:22.589Z,959.68
2018-10-01T03:24:22.576Z,959.73
2018-10-01T03:25:22.575Z,959.71
2018-10-01T03:26:22.555Z,959.68
2018-10-01T03:27:22.571Z,959.62
2018-10-01T03:28:22.561Z,959.60
2018-10-01T03:29:22.528Z,959.60
2018-10-01T03:30:22.507Z,959.61
2018-10-01T03:31:22.496Z,959.63
2018-10-01T03:32:22.488Z,959.64
2018-10-01T03:33:22.499Z,959.65
2018-10-01T03:34:22.460Z,959.63
2018-10-01T03:35:22.454Z,959.64
2018-10-01T03:36:22.444Z,959.67
2018-10-01T03:37:22.439Z,959.68
2018-10-01T03:38:22.440Z,959.61
2018-10-01T03:39:22.418Z,959.65
2018-10-01T03:40:22.396Z,959.60
2018-10-01T03:41:22.379Z,959.65
2018-10-01T03:42:22.368Z,959.61
2018-10-01T03:43:22.393Z,959.62
2018-10-01T03:44:22.347Z,959.63
2018-10-01T03:45:22.342Z,959.63
2018-10-01T03:46:22.328Z,959.62
2018-10-01T03:47:22.317Z,959.63
2018-10-01T03:48:22.338Z,959.63
2018-10-01T03:49:22.329Z,959.65
2018-10-01T03:50:22.279Z,959.69
2018-10-01T03:51:22.269Z,959.66
2018-10-01T03:52:22.262Z,959.70
2018-10-01T03:53:22.246Z,959.67
2018-10-01T03:54:22.259Z,959.70
2018-10-01T03:55:22.227Z,959.75
2018-10-01T03:56:22.212Z,959.72
2018-10-01T03:57:22.203Z,959.73
2018-10-01T03:58:22.229Z,959.72
2018-10-01T03:59:22.214Z,959.71
2018-10-01T04:00:22.168Z,959.72
2018-10-01T04:01:22.156Z,959.74
2018-10-01T04:02:22.145Z,959.79
2018-10-01T04:03:22.143Z,959.78
2018-10-01T04:04:22.159Z,959.77
2018-10-01T04:05:22.116Z,959.76
2018-10-01T04:06:22.104Z,959.81
2018-10-01T04:07:22.089Z,959.79
2018-10-01T04:08:22.082Z,959.73
2018-10-01T04:09:22.067Z,959.70
2018-10-01T04:10:22.072Z,959.76
2018-10-01T04:11:22.039Z,959.77
2018-10-01T04:12:29.125Z,959.70
2018-10-01T04:13:29.080Z,959.75
2018-10-01T04:14:22.019Z,959.79
2018-10-01T04:15:22.026Z,959.80
2018-10-01T04:16:21.992Z,959.81
2018-10-01T04:17:21.983Z,959.81
2018-10-01T04:18:21.980Z,959.80
2018-10-01T04:19:21.949Z,959.81
2018-10-01T04:20:21.992Z,959.76
2018-10-01T04:21:21.937Z,959.75
2018-10-01T04:22:21.917Z,959.75
2018-10-01T04:23:21.909Z,959.71
2018-10-01T04:24:28.985Z,959.75
2018-10-01T04:25:29.216Z,959.71
2018-10-01T04:26:21.894Z,959.76
2018-10-01T04:27:28.973Z,959.83
2018-10-01T04:28:22.110Z,959.78
2018-10-01T04:29:21.848Z,959.76
2018-10-01T04:30:21.824Z,959.81
2018-10-01T04:31:21.839Z,959.77
2018-10-01T04:32:21.805Z,959.78
2018-10-01T04:33:21.790Z,959.79
2018-10-01T04:34:21.781Z,959.79
2018-10-01T04:35:21.790Z,959.81
2018-10-01T04:36:21.789Z,959.83
2018-10-01T04:37:21.760Z,959.78
2018-10-01T04:38:21.742Z,959.78
2018-10-01T04:39:28.818Z,959.80
2018-10-01T04:40:21.718Z,959.83
2018-10-01T04:41:28.871Z,959.84
2018-10-01T04:42:21.693Z,959.81
2018-10-01T04:43:21.690Z,959.81
2018-10-01T04:44:28.749Z,959.81
2018-10-01T04:45:28.730Z,959.80
2018-10-01T04:46:21.672Z,959.82
2018-10-01T04:47:21.659Z,959.77
2018-10-01T04:48:21.624Z,959.82
2018-10-01T04:49:21.622Z,959.80
2018-10-01T04:50:21.619Z,959.83
2018-10-01T04:51:21.590Z,959.85
2018-10-01T04:52:21.607Z,959.87
2018-10-01T04:53:21.575Z,959.83
2018-10-01T04:54:21.557Z,959.87
2018-10-01T04:55:21.562Z,959.88
2018-10-01T04:56:21.541Z,959.88
2018-10-01T04:57:21.551Z,959.87
2018-10-01T04:58:21.636Z,959.89
2018-10-01T04:59:21.506Z,959.89
2018-10-01T05:00:21.487Z,959.86
2018-10-01T05:01:21.478Z,959.88
2018-10-01T05:02:21.502Z,959.89
2018-10-01T05:03:21.456Z,959.93
2018-10-01T05:04:21.452Z,959.91
2018-10-01T05:05:21.443Z,959.91
2018-10-01T05:06:21.431Z,959.92
2018-10-01T05:07:21.439Z,959.97
2018-10-01T05:08:21.423Z,959.97
2018-10-01T05:09:21.383Z,959.95
2018-10-01T05:10:21.397Z,959.95
2018-10-01T05:11:21.386Z,959.98
2018-10-01T05:12:21.350Z,959.95
2018-10-01T05:13:21.373Z,959.94
2018-10-01T05:14:21.329Z,960.01
2018-10-01T05:15:21.338Z,959.93
2018-10-01T05:16:21.310Z,960.00
2018-10-01T05:17:21.306Z,960.01
2018-10-01T05:18:21.315Z,960.02
2018-10-01T05:19:21.276Z,960.04
2018-10-01T05:20:21.262Z,960.08
2018-10-01T05:21:21.251Z,960.12
2018-10-01T05:22:21.238Z,960.10
2018-10-01T05:23:21.260Z,960.06
2018-10-01T05:24:21.218Z,960.09
2018-10-01T05:25:21.211Z,960.07
2018-10-01T05:26:21.195Z,960.10
2018-10-01T05:27:21.185Z,960.07
2018-10-01T05:28:21.204Z,960.09
2018-10-01T05:29:21.177Z,960.07
2018-10-01T05:30:21.152Z,960.07
2018-10-01T05:31:21.144Z,960.10
2018-10-01T05:32:21.138Z,960.04
2018-10-01T05:33:21.118Z,960.07
2018-10-01T05:34:21.130Z,960.05
2018-10-01T05:35:21.119Z,960.05
2018-10-01T05:36:21.084Z,960.07
2018-10-01T05:37:21.076Z,960.04
2018-10-01T05:38:21.067Z,960.07
2018-10-01T05:39:21.084Z,960.04
2018-10-01T05:40:21.042Z,960.06
2018-10-01T05:41:21.035Z,960.08
2018-10-01T05:42:21.014Z,960.10
2018-10-01T05:43:21.009Z,960.07
2018-10-01T05:44:21.032Z,960.09
2018-10-01T05:45:20.982Z,960.09
2018-10-01T05:46:21.013Z,960.07
2018-10-01T05:47:21.012Z,960.10
2018-10-01T05:48:20.984Z,960.11
2018-10-01T05:49:20.982Z,960.09
2018-10-01T05:50:21.049Z,960.12
2018-10-01T05:51:20.969Z,960.12
2018-10-01T05:52:21.074Z,960.12
2018-10-01T05:53:20.900Z,960.12
2018-10-01T05:54:20.881Z,960.11
2018-10-01T05:55:20.896Z,960.17
2018-10-01T05:56:20.881Z,960.12
2018-10-01T05:57:20.848Z,960.17
2018-10-01T05:58:20.841Z,960.16
2018-10-01T05:59:20.847Z,960.24
2018-10-01T06:00:20.852Z,960.22
2018-10-01T06:01:20.805Z,960.23
2018-10-01T06:02:20.804Z,960.26
2018-10-01T06:03:20.838Z,960.25
2018-10-01T06:04:20.796Z,960.23
2018-10-01T06:05:20.767Z,960.30
2018-10-01T06:06:20.800Z,960.30
2018-10-01T06:07:20.739Z,960.30
2018-10-01T06:08:20.736Z,960.36
2018-10-01T06:09:20.713Z,960.35
2018-10-01T06:10:20.722Z,960.39
2018-10-01T06:11:20.719Z,960.41
2018-10-01T06:12:20.681Z,960.35
2018-10-01T06:13:20.684Z,960.38
2018-10-01T06:14:20.670Z,960.43
2018-10-01T06:15:20.645Z,960.44
2018-10-01T06:16:20.681Z,960.48
2018-10-01T06:17:20.647Z,960.44
2018-10-01T06:18:20.612Z,960.50
2018-10-01T06:19:20.603Z,960.52
2018-10-01T06:20:20.614Z,960.50
2018-10-01T06:21:20.745Z,960.53
2018-10-01T06:22:20.596Z,960.56
2018-10-01T06:23:20.579Z,960.53
2018-10-01T06:24:20.551Z,960.55
2018-10-01T06:25:20.660Z,960.50
2018-10-01T06:26:20.554Z,960.53
2018-10-01T06:27:20.545Z,960.54
2018-10-01T06:28:20.506Z,960.52
2018-10-01T06:29:20.558Z,960.62
2018-10-01T06:30:20.537Z,960.66
2018-10-01T06:31:20.491Z,960.61
2018-10-01T06:32:20.484Z,960.66
2018-10-01T06:33:20.449Z,960.69
2018-10-01T06:34:20.445Z,960.68
2018-10-01T06:35:20.426Z,960.70
2018-10-01T06:36:20.450Z,960.69
2018-10-01T06:37:20.398Z,960.70
2018-10-01T06:38:20.425Z,960.75
2018-10-01T06:39:20.413Z,960.74
2018-10-01T06:40:20.368Z,960.75
2018-10-01T06:41:20.371Z,960.75
2018-10-01T06:42:20.341Z,960.82
2018-10-01T06:43:20.365Z,960.76
2018-10-01T06:44:20.317Z,960.79
2018-10-01T06:45:20.478Z,960.78
2018-10-01T06:46:20.293Z,960.78
2018-10-01T06:47:20.282Z,960.81
2018-10-01T06:48:20.315Z,960.78
2018-10-01T06:49:20.294Z,960.77
2018-10-01T06:50:27.375Z,960.73
2018-10-01T06:51:27.290Z,960.77
2018-10-01T06:52:20.248Z,960.75
2018-10-01T06:53:20.284Z,960.79
2018-10-01T06:54:20.214Z,960.78
2018-10-01T06:55:20.201Z,960.78
2018-10-01T06:56:20.182Z,960.77
2018-10-01T06:57:20.175Z,960.77
2018-10-01T06:58:20.161Z,960.81
2018-10-01T06:59:20.199Z,960.77
2018-10-01T07:00:20.183Z,960.77
2018-10-01T07:01:20.187Z,960.75
2018-10-01T07:02:20.112Z,960.74
2018-10-01T07:03:20.119Z,960.76
2018-10-01T07:04:20.113Z,960.79
2018-10-01T07:05:20.104Z,960.84
2018-10-01T07:06:20.076Z,960.85
2018-10-01T07:07:20.066Z,960.82
2018-10-01T07:08:20.044Z,960.85
2018-10-01T07:09:20.056Z,960.78
2018-10-01T07:10:20.047Z,960.88
2018-10-01T07:11:20.104Z,960.88
2018-10-01T07:12:20.009Z,960.88
2018-10-01T07:13:20.002Z,960.91
2018-10-01T07:14:20.034Z,960.88
2018-10-01T07:15:19.976Z,960.86
2018-10-01T07:16:19.984Z,960.86
2018-10-01T07:17:20.083Z,960.92
2018-10-01T07:18:19.944Z,960.91
2018-10-01T07:19:19.921Z,960.97
2018-10-01T07:20:19.944Z,960.96
2018-10-01T07:21:19.918Z,960.99
2018-10-01T07:22:19.926Z,961.00
2018-10-01T07:23:20.055Z,961.03
2018-10-01T07:24:19.875Z,960.97
2018-10-01T07:25:19.883Z,961.02
2018-10-01T07:26:19.870Z,961.04
2018-10-01T07:27:19.841Z,961.05
2018-10-01T07:28:19.831Z,961.10
2018-10-01T07:29:19.819Z,961.08
2018-10-01T07:30:19.852Z,961.10
2018-10-01T07:31:19.810Z,961.10
2018-10-01T07:32:19.776Z,961.07
2018-10-01T07:33:19.776Z,961.09
2018-10-01T07:34:19.753Z,961.11
2018-10-01T07:35:19.781Z,961.09
2018-10-01T07:36:19.749Z,961.12
2018-10-01T07:37:19.728Z,961.16
2018-10-01T07:38:19.709Z,961.10
2018-10-01T07:39:19.718Z,961.16
2018-10-01T07:40:19.717Z,961.17
2018-10-01T07:41:19.729Z,961.20
2018-10-01T07:42:19.690Z,961.19
2018-10-01T07:43:19.689Z,961.18
2018-10-01T07:44:19.640Z,961.20
2018-10-01T07:45:19.869Z,961.24
2018-10-01T07:46:19.688Z,961.20
2018-10-01T07:47:19.643Z,961.23
2018-10-01T07:48:19.600Z,961.27
2018-10-01T07:49:19.623Z,961.24
2018-10-01T07:50:19.579Z,961.27
2018-10-01T07:51:19.594Z,961.30
2018-10-01T07:52:19.557Z,961.23
2018-10-01T07:53:26.732Z,961.26
2018-10-01T07:54:26.629Z,961.24
2018-10-01T07:55:26.581Z,961.30
2018-10-01T07:56:26.676Z,961.29
2018-10-01T07:57:19.518Z,961.30
2018-10-01T07:58:26.535Z,961.31
2018-10-01T07:59:19.475Z,961.35
2018-10-01T08:00:19.522Z,961.36
2018-10-01T08:01:19.462Z,961.40
2018-10-01T08:02:19.541Z,961.38
2018-10-01T08:03:19.427Z,961.40
2018-10-01T08:04:19.413Z,961.42
2018-10-01T08:05:19.439Z,961.44
2018-10-01T08:06:19.413Z,961.49
2018-10-01T08:07:19.381Z,961.52
2018-10-01T08:08:19.448Z,961.54
2018-10-01T08:09:19.468Z,961.57
2018-10-01T08:10:19.424Z,961.56
2018-10-01T08:11:19.340Z,961.57
2018-10-01T08:12:19.354Z,961.58
2018-10-01T08:13:19.317Z,961.53
2018-10-01T08:14:19.319Z,961.58
2018-10-01T08:15:19.346Z,961.55
2018-10-01T08:16:19.281Z,961.62
2018-10-01T08:17:19.272Z,961.64
2018-10-01T08:18:19.287Z,961.68
2018-10-01T08:19:19.247Z,961.65
2018-10-01T08:20:19.295Z,961.70
2018-10-01T08:21:19.226Z,961.73
2018-10-01T08:22:19.248Z,961.65
2018-10-01T08:23:19.206Z,961.71
2018-10-01T08:24:19.192Z,961.73
2018-10-01T08:25:19.181Z,961.71
2018-10-01T08:26:19.306Z,961.73
2018-10-01T08:27:19.191Z,961.78
2018-10-01T08:28:19.147Z,961.79
2018-10-01T08:29:19.176Z,961.75
2018-10-01T08:30:19.125Z,961.78
2018-10-01T08:31:19.204Z,961.83
2018-10-01T08:32:19.167Z,961.83
2018-10-01T08:33:19.097Z,961.82
2018-10-01T08:34:19.125Z,961.86
2018-10-01T08:35:19.091Z,961.89
2018-10-01T08:36:19.060Z,961.88
2018-10-01T08:37:19.044Z,961.90
2018-10-01T08:38:19.242Z,961.89
2018-10-01T08:39:19.026Z,961.89
2018-10-01T08:40:19.013Z,961.93
2018-10-01T08:41:19.051Z,961.87
2018-10-01T08:42:19.024Z,961.96
2018-10-01T08:43:26.076Z,961.97
2018-10-01T08:44:18.974Z,961.97
2018-10-01T08:45:18.961Z,961.95
2018-10-01T08:46:18.945Z,962.01
2018-10-01T08:47:19.087Z,961.97
2018-10-01T08:48:18.941Z,962.04
2018-10-01T08:49:18.909Z,962.02
2018-10-01T08:50:18.917Z,962.02
2018-10-01T08:51:18.891Z,962.05
2018-10-01T08:52:18.948Z,962.01
2018-10-01T08:53:19.756Z,962.05
2018-10-01T08:54:18.863Z,962.10
2018-10-01T08:55:18.847Z,962.04
2018-10-01T08:56:18.841Z,962.05
2018-10-01T08:57:18.827Z,962.08
2018-10-01T08:58:18.854Z,962.09
2018-10-01T08:59:18.808Z,962.17
2018-10-01T09:00:18.803Z,962.10
2018-10-01T09:01:18.811Z,962.11
2018-10-01T09:02:25.897Z,962.15
2018-10-01T09:03:18.780Z,962.14
2018-10-01T09:04:18.741Z,962.20
2018-10-01T09:05:18.772Z,962.17
2018-10-01T09:06:18.740Z,962.18
2018-10-01T09:07:18.717Z,962.21
2018-10-01T09:08:18.763Z,962.23
2018-10-01T09:09:18.687Z,962.27
2018-10-01T09:10:18.674Z,962.22
2018-10-01T09:11:18.721Z,962.25
2018-10-01T09:12:18.728Z,962.24
2018-10-01T09:13:18.639Z,962.23
2018-10-01T09:14:18.709Z,962.28
2018-10-01T09:15:18.616Z,962.33
2018-10-01T09:16:18.606Z,962.32
2018-10-01T09:17:18.599Z,962.29
2018-10-01T09:18:18.617Z,962.29
2018-10-01T09:19:18.571Z,962.31
2018-10-01T09:20:18.624Z,962.33
2018-10-01T09:21:18.610Z,962.33
2018-10-01T09:22:18.541Z,962.34
2018-10-01T09:23:18.556Z,962.39
2018-10-01T09:24:18.534Z,962.33
2018-10-01T09:25:18.512Z,962.42
2018-10-01T09:26:18.580Z,962.35
2018-10-01T09:27:18.484Z,962.39
2018-10-01T09:28:18.507Z,962.35
2018-10-01T09:29:18.486Z,962.44
2018-10-01T09:30:18.455Z,962.41
2018-10-01T09:31:18.549Z,962.41
2018-10-01T09:32:18.436Z,962.38
2018-10-01T09:33:18.445Z,962.43
2018-10-01T09:34:18.402Z,962.42
2018-10-01T09:35:18.400Z,962.51
2018-10-01T09:36:18.398Z,962.45
2018-10-01T09:37:18.371Z,962.48
2018-10-01T09:38:19.292Z,962.53
2018-10-01T09:39:18.360Z,962.49
2018-10-01T09:40:18.338Z,962.52
2018-10-01T09:41:18.329Z,962.53
2018-10-01T09:42:18.342Z,962.53
2018-10-01T09:43:18.348Z,962.50
2018-10-01T09:44:18.356Z,962.51
2018-10-01T09:45:18.306Z,962.54
2018-10-01T09:46:18.314Z,962.47
2018-10-01T09:47:18.261Z,962.52
2018-10-01T09:48:18.257Z,962.56
2018-10-01T09:49:18.254Z,962.51
2018-10-01T09:50:18.258Z,962.52
2018-10-01T09:51:18.216Z,962.58
2018-10-01T09:52:18.256Z,962.61
2018-10-01T09:53:18.198Z,962.61
2018-10-01T09:54:18.231Z,962.60
2018-10-01T09:55:18.171Z,962.60
2018-10-01T09:56:18.237Z,962.58
2018-10-01T09:57:18.149Z,962.60
2018-10-01T09:58:18.188Z,962.57
2018-10-01T09:59:18.130Z,962.60
2018-10-01T10:00:18.163Z,962.59
2018-10-01T10:01:18.176Z,962.68
2018-10-01T10:02:18.151Z,962.69
2018-10-01T10:03:18.080Z,962.68
2018-10-01T10:04:18.090Z,962.73
2018-10-01T10:05:18.084Z,962.69
2018-10-01T10:06:18.046Z,962.70
2018-10-01T10:07:18.040Z,962.70
2018-10-01T10:08:18.086Z,962.67
2018-10-01T10:09:18.013Z,962.69
2018-10-01T10:10:18.095Z,962.70
2018-10-01T10:11:18.010Z,962.70
2018-10-01T10:12:17.981Z,962.75
2018-10-01T10:13:17.989Z,962.70
2018-10-01T10:14:18.057Z,962.72
2018-10-01T10:15:25.098Z,962.71
2018-10-01T10:16:25.658Z,962.73
2018-10-01T10:17:25.049Z,962.69
2018-10-01T10:18:24.967Z,962.66
2018-10-01T10:19:17.906Z,962.66
2018-10-01T10:20:17.894Z,962.71
2018-10-01T10:21:17.956Z,962.68
2018-10-01T10:22:17.912Z,962.68
2018-10-01T10:23:17.879Z,962.71
2018-10-01T10:24:25.007Z,962.72
2018-10-01T10:25:17.832Z,962.74
2018-10-01T10:26:17.866Z,962.72
2018-10-01T10:27:17.806Z,962.70
2018-10-01T10:28:17.857Z,962.74
2018-10-01T10:29:17.811Z,962.71
2018-10-01T10:30:17.777Z,962.67
2018-10-01T10:31:17.763Z,962.70
2018-10-01T10:32:17.805Z,962.71
2018-10-01T10:33:17.736Z,962.74
2018-10-01T10:34:17.768Z,962.74
2018-10-01T10:35:17.751Z,962.73
2018-10-01T10:36:17.702Z,962.74
2018-10-01T10:37:17.693Z,962.69
2018-10-01T10:38:17.689Z,962.73
2018-10-01T10:39:17.693Z,962.81
2018-10-01T10:40:17.661Z,962.77
2018-10-01T10:41:17.653Z,962.75
2018-10-01T10:42:17.674Z,962.78
2018-10-01T10:43:17.627Z,962.80
2018-10-01T10:44:17.757Z,962.85
2018-10-01T10:45:17.608Z,962.90
2018-10-01T10:46:17.643Z,962.88
2018-10-01T10:47:17.620Z,962.87
2018-10-01T10:48:17.587Z,962.92
2018-10-01T10:49:18.222Z,962.88
2018-10-01T10:50:17.744Z,962.92
2018-10-01T10:51:18.455Z,962.90
2018-10-01T10:52:17.649Z,962.89
2018-10-01T10:53:17.765Z,962.90
2018-10-01T10:54:17.503Z,962.98
2018-10-01T10:55:17.860Z,962.94
2018-10-01T10:56:17.810Z,962.92
2018-10-01T10:57:17.471Z,962.90
2018-10-01T10:58:17.455Z,962.91
2018-10-01T10:59:17.546Z,962.85
2018-10-01T11:00:17.641Z,962.93
2018-10-01T11:01:17.442Z,962.88
2018-10-01T11:02:17.506Z,962.90
2018-10-01T11:03:17.438Z,962.89
2018-10-01T11:04:17.455Z,962.94
2018-10-01T11:05:17.825Z,962.89
2018-10-01T11:06:17.366Z,962.94
2018-10-01T11:07:17.568Z,962.94
2018-10-01T11:08:17.486Z,962.93
2018-10-01T11:09:17.395Z,962.94
2018-10-01T11:10:17.509Z,962.94
2018-10-01T11:11:17.368Z,962.84
2018-10-01T11:12:17.299Z,962.85
2018-10-01T11:13:17.345Z,962.92
2018-10-01T11:14:17.501Z,962.87
2018-10-01T11:15:18.105Z,962.90
2018-10-01T11:16:17.347Z,962.89
2018-10-01T11:17:17.506Z,962.93
2018-10-01T11:18:17.569Z,962.94
2018-10-01T11:19:24.322Z,962.92
2018-10-01T11:20:24.363Z,962.87
2018-10-01T11:21:17.224Z,962.91
2018-10-01T11:22:17.187Z,962.88
2018-10-01T11:23:17.209Z,962.90
2018-10-01T11:24:17.159Z,962.90
2018-10-01T11:25:17.175Z,962.84
2018-10-01T11:26:17.144Z,962.86
2018-10-01T11:27:17.288Z,962.83
2018-10-01T11:28:17.167Z,962.87
2018-10-01T11:29:17.110Z,962.90
2018-10-01T11:30:17.131Z,962.85
2018-10-01T11:31:17.086Z,962.86
2018-10-01T11:32:17.344Z,962.87
2018-10-01T11:33:17.271Z,962.82
2018-10-01T11:34:17.190Z,962.82
2018-10-01T11:35:17.291Z,962.84
2018-10-01T11:36:17.075Z,962.81
2018-10-01T11:37:17.150Z,962.80
2018-10-01T11:38:17.078Z,962.76
2018-10-01T11:39:17.011Z,962.80
2018-10-01T11:40:17.012Z,962.80
2018-10-01T11:41:17.077Z,962.78
2018-10-01T11:42:17.171Z,962.73
2018-10-01T11:43:17.266Z,962.87
2018-10-01T11:44:17.060Z,962.80
2018-10-01T11:45:17.519Z,962.83
2018-10-01T11:46:17.081Z,962.75
2018-10-01T11:47:16.911Z,962.79
2018-10-01T11:48:17.001Z,962.76
2018-10-01T11:49:16.884Z,962.86
2018-10-01T11:50:16.875Z,962.75
2018-10-01T11:51:17.208Z,962.78
2018-10-01T11:52:16.855Z,962.82
2018-10-01T11:53:16.833Z,962.82
2018-10-01T11:54:16.879Z,962.85
2018-10-01T11:55:16.816Z,962.81
2018-10-01T11:56:16.802Z,962.76
2018-10-01T11:57:16.828Z,962.78
2018-10-01T11:58:16.866Z,962.79
2018-10-01T11:59:16.793Z,962.79
2018-10-01T12:00:16.761Z,962.87
2018-10-01T12:01:16.742Z,962.90
2018-10-01T12:02:16.732Z,962.89
2018-10-01T12:03:16.818Z,962.84
2018-10-01T12:04:16.940Z,962.92
2018-10-01T12:05:16.698Z,962.85
2018-10-01T12:06:16.698Z,962.84
2018-10-01T12:07:16.688Z,962.94
2018-10-01T12:08:16.694Z,962.94
2018-10-01T12:09:16.710Z,962.88
2018-10-01T12:10:16.711Z,962.94
2018-10-01T12:11:16.637Z,962.91
2018-10-01T12:12:16.630Z,962.95
2018-10-01T12:13:16.620Z,962.93
2018-10-01T12:14:16.601Z,962.99
2018-10-01T12:15:16.846Z,962.92
2018-10-01T12:16:16.743Z,963.00
2018-10-01T12:17:16.565Z,962.97
2018-10-01T12:18:16.624Z,962.99
2018-10-01T12:19:16.547Z,962.98
2018-10-01T12:20:16.598Z,963.01
2018-10-01T12:21:16.653Z,963.02
2018-10-01T12:22:16.545Z,963.00
2018-10-01T12:23:16.497Z,962.98
2018-10-01T12:24:16.494Z,963.06
2018-10-01T12:25:16.533Z,963.03
2018-10-01T12:26:16.466Z,963.06
2018-10-01T12:27:16.558Z,963.07
2018-10-01T12:28:16.494Z,963.05